aviador You're here:

KDIK Decoded Metar

DICKINSON in ND, USA
Report Time2018-01-23 04:56:00
UTC Time2018-01-23 05:37:14
Flight Rules vfr VFR
Wind280° at 10 kt
W.Decomp.*RWY 25: 9.4 kt HW 3.4 kt RCW
RWY 32: 6.4 kt HW 7.7 kt LCW
W.Rank280° ranks 3
Current wind is below 280° avg. (10.9)
Visibility9999 m
Phenomena:N/A
Clouds:N/A
Expected CloudBase > 1,600 ft AGL from Temp-Dew spread
CeilingNone
Temp-3°C (ISA -13)
Dew Point-7°C (74% RH)
AAT-9.4°C
QNH1015 hPa
Density Alt1,004 ft
Elevation2,585 ft
Report Wrong Elevation
Raw Report
KDIK 230456Z AUTO 28010KT 10SM CLR M03/M07 A2997 RMK AO2 SLP182
T10331067=

Extra information for KDIK:More info

Metar Taf Metar & Taf Last 4 Metars F.Rules Stats Wind Profile Meteogram Temp Stats Airport Information Weather charts Add Link Nearby VenuesMetar ALERT Operation Metar Decoded Social comments

AIRNAV info for KDIK